Time;durP1;ratioP1;P1;durP2;ratioP2;P2;SDS_P1;SDS_P2;PMS_P1;PMS_P2;Temp;Humidity;BMP_temperature;BMP_pressure;BME280_temperature;BME280_humidity;BME280_pressure;Samples;Min_cycle;Max_cycle;Signal;HPM_P1;HPM_P2
2022/06/02 00:02:34;;;;;;;1.58;1.25;;;16.50;99.90;;;;;;4145958;28;20497;-89
2022/06/02 00:05:32;;;;;;;3.25;1.55;;;16.50;99.90;;;;;;4135322;28;20525;-89
2022/06/02 00:08:17;;;;;;;1.30;1.20;;;16.30;99.90;;;;;;4138824;28;20524;-89
2022/06/02 00:10:49;;;;;;;4.00;1.42;;;16.10;99.90;;;;;;4147676;28;20057;-89
2022/06/02 00:13:18;;;;;;;3.58;1.92;;;15.90;99.90;;;;;;4146281;28;20056;-88
2022/06/02 00:15:45;;;;;;;1.75;1.40;;;15.80;99.90;;;;;;4145500;28;20108;-89
2022/06/02 00:18:16;;;;;;;2.67;1.40;;;15.70;99.90;;;;;;4141614;28;20478;-89
2022/06/02 00:20:44;;;;;;;1.30;1.30;;;15.60;99.90;;;;;;4137514;28;20137;-88
2022/06/02 00:23:09;;;;;;;2.15;1.40;;;15.80;99.90;;;;;;4145699;28;20047;-89
2022/06/02 00:26:16;;;;;;;3.05;2.13;;;15.70;99.90;;;;;;4162012;28;20112;-89
2022/06/02 00:29:16;;;;;;;5.07;1.63;;;15.70;99.90;;;;;;4130990;28;20156;-89
2022/06/02 00:32:02;;;;;;;1.63;1.30;;;15.70;99.90;;;;;;4146968;28;20141;-89
2022/06/02 00:34:42;;;;;;;1.52;1.50;;;15.90;99.90;;;;;;4132007;28;20089;-87
2022/06/02 00:37:21;;;;;;;1.73;1.63;;;15.60;99.90;;;;;;4146099;28;20048;-88
2022/06/02 00:39:41;;;;;;;4.10;1.90;;;15.70;99.90;;;;;;4148125;28;20501;-88
2022/06/02 00:42:23;;;;;;;1.55;1.40;;;15.60;99.90;;;;;;4163170;28;20055;-88
2022/06/02 00:45:01;;;;;;;2.78;1.70;;;15.60;99.90;;;;;;4148384;28;20056;-88
2022/06/02 00:47:53;;;;;;;1.60;1.50;;;15.70;99.90;;;;;;4132116;28;20056;-88
2022/06/02 00:50:53;;;;;;;2.42;1.60;;;15.40;99.90;;;;;;4131955;28;20053;-87
2022/06/02 00:57:30;;;;;;;1.90;1.50;;;15.40;99.90;;;;;;4114934;28;20529;-88
2022/06/02 00:59:42;;;;;;;4.28;1.40;;;15.30;99.90;;;;;;4128022;28;20058;-88
2022/06/02 01:02:03;;;;;;;1.70;1.58;;;15.30;99.90;;;;;;4130295;28;20060;-83
2022/06/02 01:04:25;;;;;;;5.10;1.60;;;15.30;99.90;;;;;;4113018;28;20836;-84
2022/06/02 01:07:21;;;;;;;2.55;1.35;;;15.30;99.90;;;;;;4113577;28;20113;-83
2022/06/02 01:09:59;;;;;;;2.38;1.30;;;15.30;99.90;;;;;;4084483;28;20138;-83
2022/06/02 01:12:46;;;;;;;1.65;1.40;;;15.20;99.90;;;;;;4113524;28;20057;-83
2022/06/02 01:15:39;;;;;;;2.42;1.67;;;15.30;99.90;;;;;;4115547;28;20106;-83
2022/06/02 01:18:12;;;;;;;2.22;1.33;;;15.10;99.90;;;;;;4128765;28;20050;-83
2022/06/02 01:21:03;;;;;;;2.10;1.88;;;15.00;99.90;;;;;;4115580;28;20058;-84
2022/06/02 01:23:57;;;;;;;1.45;1.45;;;15.10;99.90;;;;;;4129150;28;20061;-83
2022/06/02 01:26:49;;;;;;;4.20;1.52;;;14.90;99.90;;;;;;4129169;28;20052;-84
2022/06/02 01:29:28;;;;;;;1.20;1.15;;;14.90;99.90;;;;;;4135935;28;20537;-83
2022/06/02 01:32:02;;;;;;;1.60;1.23;;;14.90;99.90;;;;;;4147391;28;20127;-83
2022/06/02 01:34:46;;;;;;;1.70;1.70;;;14.90;99.90;;;;;;4159529;28;20460;-83
2022/06/02 01:37:22;;;;;;;1.65;1.48;;;14.90;99.90;;;;;;4163239;28;20052;-83
2022/06/02 01:40:24;;;;;;;4.40;1.75;;;14.70;99.90;;;;;;4163250;28;20048;-84
2022/06/02 01:42:53;;;;;;;1.33;1.30;;;14.60;99.90;;;;;;4163313;28;20048;-83
2022/06/02 01:45:22;;;;;;;1.70;1.48;;;14.50;99.90;;;;;;4151460;28;20129;-84
2022/06/02 01:48:19;;;;;;;4.28;1.70;;;14.50;99.90;;;;;;4148149;28;20057;-83
2022/06/02 01:50:51;;;;;;;2.83;1.55;;;14.40;99.90;;;;;;4115618;28;20045;-83
2022/06/02 01:53:49;;;;;;;1.52;1.50;;;14.50;99.90;;;;;;4115667;28;20070;-83
2022/06/02 01:56:33;;;;;;;2.38;2.28;;;14.50;99.90;;;;;;4102359;28;20050;-83
2022/06/02 01:58:56;;;;;;;1.40;1.40;;;14.50;99.90;;;;;;4110539;28;20102;-83
2022/06/02 02:01:34;;;;;;;4.00;1.95;;;14.50;99.90;;;;;;4099765;29;20066;-83
2022/06/02 02:03:56;;;;;;;2.80;1.25;;;14.50;99.90;;;;;;4102149;28;20065;-83
2022/06/02 02:07:02;;;;;;;2.17;1.60;;;14.50;99.90;;;;;;4115904;28;20082;-83
2022/06/02 02:09:58;;;;;;;2.45;1.50;;;14.30;99.90;;;;;;4083485;29;20066;-83
2022/06/02 02:12:38;;;;;;;2.97;2.22;;;14.40;99.90;;;;;;4070158;29;20090;-84
2022/06/02 02:15:20;;;;;;;1.60;1.50;;;14.40;99.90;;;;;;4083315;29;20110;-84
2022/06/02 02:18:19;;;;;;;1.55;1.45;;;14.50;99.90;;;;;;4083516;29;20142;-83
2022/06/02 02:20:43;;;;;;;2.80;2.22;;;14.40;99.90;;;;;;4083372;29;20100;-83
2022/06/02 02:23:09;;;;;;;2.55;2.35;;;14.30;99.90;;;;;;4083452;29;20047;-83
2022/06/02 02:25:32;;;;;;;1.67;1.40;;;14.40;99.90;;;;;;4083301;29;20132;-83
2022/06/02 02:28:42;;;;;;;1.65;1.55;;;14.40;99.90;;;;;;4101811;28;20054;-83
2022/06/02 02:31:25;;;;;;;2.85;2.03;;;14.30;99.90;;;;;;4074699;29;20113;-83
2022/06/02 02:34:20;;;;;;;3.50;1.88;;;14.30;99.90;;;;;;4066120;29;20051;-83
2022/06/02 02:37:14;;;;;;;1.92;1.80;;;14.20;99.90;;;;;;4054964;29;20580;-83
2022/06/02 02:39:51;;;;;;;2.13;1.50;;;14.10;99.90;;;;;;4067418;29;20117;-84
2022/06/02 02:42:17;;;;;;;1.45;1.35;;;14.00;99.90;;;;;;4054396;29;20059;-83
2022/06/02 02:45:09;;;;;;;2.70;2.47;;;14.00;99.90;;;;;;4054087;29;20052;-83
2022/06/02 02:47:57;;;;;;;2.90;1.60;;;14.10;99.90;;;;;;4050356;29;20060;-83
2022/06/02 02:50:27;;;;;;;1.48;1.38;;;13.90;99.90;;;;;;4054148;29;20088;-83
2022/06/02 02:53:12;;;;;;;2.60;1.42;;;13.80;99.90;;;;;;4054293;29;20147;-83
2022/06/02 02:56:16;;;;;;;2.22;1.73;;;13.70;99.90;;;;;;4054026;29;20052;-83
2022/06/02 02:58:57;;;;;;;3.72;1.60;;;13.60;99.90;;;;;;4035616;29;20060;-84
2022/06/02 03:01:50;;;;;;;1.77;1.67;;;13.60;99.90;;;;;;4007760;29;20094;-83
2022/06/02 03:04:12;;;;;;;2.65;1.90;;;13.50;99.90;;;;;;4045762;29;20068;-83
2022/06/02 03:06:38;;;;;;;1.92;1.83;;;13.60;99.90;;;;;;4114748;28;20492;-83
2022/06/02 03:09:22;;;;;;;1.80;1.70;;;13.50;99.90;;;;;;4114625;28;20556;-84
2022/06/02 03:11:57;;;;;;;;;;;13.40;99.90;;;;;;4115517;28;20134;-84
2022/06/02 03:14:55;;;;;;;2.33;2.00;;;13.70;99.90;;;;;;4130462;28;19931;-83
2022/06/02 03:17:44;;;;;;;4.22;1.60;;;13.70;99.90;;;;;;4114594;28;20146;-83
2022/06/02 03:20:41;;;;;;;2.42;2.05;;;13.60;99.90;;;;;;4098483;29;20050;-83
2022/06/02 03:23:23;;;;;;;2.35;1.65;;;13.50;99.90;;;;;;4099775;28;20054;-84
2022/06/02 03:25:52;;;;;;;2.65;2.00;;;13.50;99.90;;;;;;4113965;28;20098;-83
2022/06/02 03:28:55;;;;;;;2.30;1.90;;;13.50;99.90;;;;;;4114308;28;20594;-83
2022/06/02 03:31:46;;;;;;;2.65;1.67;;;13.50;99.90;;;;;;4100611;28;20049;-83
2022/06/02 03:34:12;;;;;;;4.30;2.00;;;13.40;99.90;;;;;;4139516;28;20547;-84
2022/06/02 03:36:56;;;;;;;2.58;1.50;;;13.40;99.90;;;;;;4149678;28;20497;-83
2022/06/02 03:39:26;;;;;;;1.67;1.58;;;13.40;99.90;;;;;;4163560;28;20056;-83
2022/06/02 03:42:18;;;;;;;2.90;1.70;;;13.30;99.90;;;;;;4164207;28;20103;-84
2022/06/02 03:45:07;;;;;;;3.33;2.28;;;13.40;99.90;;;;;;4164775;28;20057;-83
2022/06/02 03:47:55;;;;;;;3.28;1.80;;;13.20;99.90;;;;;;4149627;28;20128;-83
2022/06/02 03:51:00;;;;;;;1.70;1.60;;;13.20;99.90;;;;;;4163517;28;20056;-83
2022/06/02 03:53:41;;;;;;;5.68;1.70;;;13.30;99.90;;;;;;4129958;28;20052;-83
2022/06/02 03:56:15;;;;;;;2.10;2.00;;;13.30;99.90;;;;;;4129856;28;20553;-84
2022/06/02 03:58:43;;;;;;;1.52;1.52;;;13.20;99.90;;;;;;4139953;28;20157;-83
2022/06/02 04:01:06;;;;;;;4.55;1.90;;;13.10;99.90;;;;;;4166676;28;20052;-85
2022/06/02 04:03:56;;;;;;;2.15;1.95;;;13.00;99.90;;;;;;4164051;28;20136;-83
2022/06/02 04:06:44;;;;;;;4.00;1.88;;;13.00;99.90;;;;;;4164261;28;20057;-83
2022/06/02 04:09:11;;;;;;;3.67;2.25;;;12.90;99.90;;;;;;4149246;28;20430;-84
2022/06/02 04:15:17;;;;;;;2.60;2.50;;;12.80;99.90;;;;;;4163869;28;20768;-83
2022/06/02 04:17:51;;;;;;;2.63;2.42;;;12.80;99.90;;;;;;4148992;28;20044;-83
2022/06/02 04:20:37;;;;;;;2.58;2.47;;;12.90;99.90;;;;;;4159734;28;20227;-83
2022/06/02 04:23:15;;;;;;;2.22;2.05;;;13.10;99.90;;;;;;4159723;28;20091;-83
2022/06/02 04:26:10;;;;;;;1.60;1.55;;;13.10;99.90;;;;;;4163510;28;20056;-83
2022/06/02 04:28:45;;;;;;;1.90;1.80;;;13.10;99.90;;;;;;4115745;28;20414;-83
2022/06/02 04:31:27;;;;;;;2.88;1.92;;;13.30;99.90;;;;;;4162952;28;20153;-83
2022/06/02 04:34:08;;;;;;;1.80;1.80;;;13.30;99.90;;;;;;4147242;28;20576;-83
2022/06/02 04:36:44;;;;;;;1.77;1.70;;;13.30;99.90;;;;;;4133730;28;20569;-83
2022/06/02 04:39:16;;;;;;;3.15;2.78;;;13.30;99.90;;;;;;4169066;28;20049;-83
2022/06/02 04:42:09;;;;;;;1.70;1.50;;;13.40;99.90;;;;;;4167987;28;20056;-83
2022/06/02 04:44:38;;;;;;;1.90;1.77;;;13.30;99.90;;;;;;4169310;28;20099;-83
2022/06/02 04:47:09;;;;;;;3.22;1.60;;;13.40;99.90;;;;;;4164003;28;20055;-83
2022/06/02 04:50:07;;;;;;;1.65;1.58;;;13.40;99.90;;;;;;4132899;28;20058;-83
2022/06/02 04:52:38;;;;;;;1.60;1.60;;;13.50;99.90;;;;;;4132485;28;20084;-83
2022/06/02 04:55:13;;;;;;;1.83;1.40;;;13.50;99.90;;;;;;4143179;28;20057;-83
2022/06/02 04:58:12;;;;;;;1.90;1.90;;;13.40;99.90;;;;;;4163268;28;20455;-83
2022/06/02 05:01:28;;;;;;;3.20;2.00;;;13.50;99.90;;;;;;4157337;28;20049;-83
2022/06/02 05:04:08;;;;;;;4.10;1.58;;;13.50;99.90;;;;;;4080976;29;20070;-83
2022/06/02 05:07:02;;;;;;;2.03;1.73;;;13.50;99.90;;;;;;4068356;29;20050;-83
2022/06/02 05:09:36;;;;;;;2.53;1.80;;;13.50;99.90;;;;;;4065656;29;20888;-83
2022/06/02 05:12:21;;;;;;;2.33;1.80;;;13.60;99.90;;;;;;4065608;29;20055;-83
2022/06/02 05:15:03;;;;;;;1.75;1.65;;;13.60;99.90;;;;;;4080133;29;20423;-83
2022/06/02 05:18:03;;;;;;;1.40;1.40;;;13.70;99.90;;;;;;4067866;29;20059;-83
2022/06/02 05:20:55;;;;;;;3.58;1.60;;;13.80;99.90;;;;;;4081127;29;20099;-84
2022/06/02 05:23:37;;;;;;;1.98;1.88;;;13.90;99.90;;;;;;4069923;29;20070;-83
2022/06/02 05:26:29;;;;;;;2.78;1.80;;;13.90;99.90;;;;;;4081391;29;20063;-83
2022/06/02 05:29:20;;;;;;;1.63;1.60;;;14.00;99.90;;;;;;4072930;29;20059;-85
2022/06/02 05:31:52;;;;;;;2.25;1.42;;;14.10;99.90;;;;;;4082440;29;20088;-85
2022/06/02 05:34:49;;;;;;;2.17;1.20;;;14.20;99.90;;;;;;4083585;29;20152;-85
2022/06/02 05:37:46;;;;;;;1.30;1.20;;;14.30;99.90;;;;;;4106997;28;20111;-85
2022/06/02 05:40:16;;;;;;;2.35;1.75;;;14.40;99.90;;;;;;4150959;28;20600;-85
2022/06/02 05:43:08;;;;;;;1.42;1.15;;;14.50;99.90;;;;;;4165651;28;20061;-86
2022/06/02 05:45:55;;;;;;;1.30;1.20;;;14.60;99.90;;;;;;4156358;28;20060;-86
2022/06/02 05:48:29;;;;;;;1.48;1.48;;;14.90;99.90;;;;;;4083199;29;20062;-86
2022/06/02 05:51:12;;;;;;;1.42;1.10;;;14.90;99.90;;;;;;4083730;29;20111;-86
2022/06/02 05:53:48;;;;;;;1.75;1.10;;;15.00;99.90;;;;;;4084142;29;20411;-86
2022/06/02 05:56:14;;;;;;;4.07;1.55;;;15.30;99.90;;;;;;4098875;29;20062;-86
2022/06/02 05:58:45;;;;;;;1.40;1.30;;;15.30;99.90;;;;;;4086542;29;20063;-86
2022/06/02 06:01:47;;;;;;;1.75;1.20;;;15.50;99.90;;;;;;4096377;29;20099;-86
2022/06/02 06:04:26;;;;;;;1.55;1.45;;;15.50;99.90;;;;;;4057745;29;20058;-86
2022/06/02 06:06:57;;;;;;;1.30;1.25;;;15.50;99.90;;;;;;4089294;29;20525;-87
2022/06/02 06:09:46;;;;;;;2.70;1.73;;;15.60;99.90;;;;;;4076294;29;20133;-87
2022/06/02 06:12:41;;;;;;;2.15;1.10;;;15.80;99.90;;;;;;4083840;29;20428;-87
2022/06/02 06:15:17;;;;;;;5.35;1.58;;;16.20;99.90;;;;;;4084140;29;20573;-87
2022/06/02 06:18:02;;;;;;;1.67;1.67;;;16.40;99.90;;;;;;4070744;29;20055;-87
2022/06/02 06:20:51;;;;;;;6.72;1.95;;;16.50;99.90;;;;;;4089914;29;20529;-87
2022/06/02 06:23:46;;;;;;;1.20;1.10;;;16.70;99.90;;;;;;4072043;29;20123;-87
2022/06/02 06:26:24;;;;;;;1.88;1.00;;;16.80;99.90;;;;;;4163865;28;20056;-86
2022/06/02 06:29:12;;;;;;;1.48;1.48;;;16.80;99.90;;;;;;4135672;28;20442;-87
2022/06/02 06:31:56;;;;;;;1.08;1.02;;;17.00;99.90;;;;;;4148762;28;20532;-87
2022/06/02 06:34:23;;;;;;;2.05;0.90;;;17.20;99.90;;;;;;4149004;28;20048;-87
2022/06/02 06:37:15;;;;;;;1.27;1.05;;;17.50;99.90;;;;;;4149599;28;20119;-87
2022/06/02 06:40:07;;;;;;;1.42;1.20;;;18.00;99.90;;;;;;4149503;28;20064;-86
2022/06/02 06:42:50;;;;;;;2.78;0.93;;;17.90;99.90;;;;;;4149279;28;20056;-86
2022/06/02 06:45:11;;;;;;;;;;;17.90;99.90;;;;;;4170285;28;20119;-86
2022/06/02 06:47:45;;;;;;;2.25;1.13;;;18.10;99.90;;;;;;4164448;28;19993;-87
2022/06/02 06:50:20;;;;;;;3.30;0.90;;;18.20;99.90;;;;;;4150747;28;20134;-86
2022/06/02 06:53:07;;;;;;;1.15;0.95;;;18.40;99.90;;;;;;4165484;28;20074;-87
2022/06/02 06:56:01;;;;;;;1.10;1.10;;;18.60;99.90;;;;;;4165184;28;20048;-87
2022/06/02 06:59:01;;;;;;;0.90;0.90;;;19.30;99.90;;;;;;4150345;28;20056;-87
2022/06/02 07:01:54;;;;;;;1.13;0.90;;;19.50;99.90;;;;;;4155806;28;20072;-87
2022/06/02 07:04:51;;;;;;;1.27;0.85;;;19.70;99.90;;;;;;4165487;28;20762;-87
2022/06/02 07:07:26;;;;;;;0.90;0.90;;;19.70;99.90;;;;;;4150020;28;20128;-86
2022/06/02 07:10:08;;;;;;;2.45;0.98;;;19.90;99.90;;;;;;4150178;28;20069;-87
2022/06/02 07:12:55;;;;;;;6.97;0.95;;;20.10;99.90;;;;;;4150139;28;20057;-87
2022/06/02 07:15:40;;;;;;;3.13;0.98;;;20.10;99.90;;;;;;4164823;28;20135;-87
2022/06/02 07:18:36;;;;;;;0.80;0.80;;;20.30;99.90;;;;;;4149671;28;20048;-87
2022/06/02 07:21:19;;;;;;;0.77;0.77;;;20.50;99.90;;;;;;4150243;28;20109;-87
2022/06/02 07:24:05;;;;;;;0.80;0.80;;;21.10;99.90;;;;;;4164673;28;20048;-86
2022/06/02 07:26:38;;;;;;;1.85;0.85;;;21.30;99.90;;;;;;4164907;28;20088;-87
2022/06/02 07:29:34;;;;;;;1.63;0.80;;;21.30;99.90;;;;;;4149491;28;20057;-86
2022/06/02 07:32:32;;;;;;;5.97;0.90;;;21.60;99.90;;;;;;4156043;28;20464;-87
2022/06/02 07:35:13;;;;;;;2.92;1.17;;;21.50;99.90;;;;;;4148004;28;20452;-86
2022/06/02 07:38:12;;;;;;;1.38;0.80;;;21.80;99.90;;;;;;4148236;28;20061;-86
2022/06/02 07:41:02;;;;;;;0.70;0.70;;;22.00;99.90;;;;;;4147735;28;20088;-87
2022/06/02 07:43:53;;;;;;;3.03;0.80;;;22.10;99.90;;;;;;4147454;28;20052;-87
2022/06/02 07:46:33;;;;;;;1.45;0.70;;;22.20;99.90;;;;;;4148789;28;20119;-86
2022/06/02 07:49:28;;;;;;;0.90;0.80;;;22.30;99.90;;;;;;4164217;28;20056;-87
2022/06/02 07:52:07;;;;;;;2.83;0.80;;;22.70;99.90;;;;;;4146929;28;20556;-86
2022/06/02 07:54:46;;;;;;;0.93;0.70;;;23.00;99.90;;;;;;4133898;28;20046;-87
2022/06/02 07:57:16;;;;;;;1.30;0.70;;;23.10;99.90;;;;;;4163203;28;20543;-86
2022/06/02 08:00:00;;;;;;;2.72;0.82;;;23.20;99.90;;;;;;4133145;28;20549;-87
2022/06/02 08:02:47;;;;;;;3.20;0.75;;;23.40;99.90;;;;;;4161077;28;20484;-87
2022/06/02 08:05:31;;;;;;;1.02;0.80;;;23.60;99.90;;;;;;4148985;28;20064;-87
2022/06/02 08:07:59;;;;;;;3.15;1.23;;;24.10;99.90;;;;;;4148725;28;20100;-86
2022/06/02 08:10:25;;;;;;;0.88;0.63;;;24.80;99.90;;;;;;4148756;28;20056;-86
2022/06/02 08:12:56;;;;;;;1.33;0.60;;;24.70;99.90;;;;;;4163454;28;20051;-87
2022/06/02 08:15:27;;;;;;;1.85;0.70;;;24.80;99.90;;;;;;4163958;28;20099;-87
2022/06/02 08:18:08;;;;;;;1.60;0.60;;;25.30;99.90;;;;;;4163378;28;20056;-87
2022/06/02 08:20:38;;;;;;;2.30;0.93;;;25.40;99.90;;;;;;4163102;28;20094;-87
2022/06/02 08:23:24;;;;;;;1.90;0.70;;;25.30;99.90;;;;;;4148618;28;20061;-86
2022/06/02 08:26:06;;;;;;;0.70;0.70;;;25.00;99.90;;;;;;4148032;28;20060;-86
2022/06/02 08:28:54;;;;;;;1.52;0.70;;;24.80;99.90;;;;;;4147087;28;20060;-86
2022/06/02 08:31:55;;;;;;;2.50;0.70;;;25.30;99.90;;;;;;4161717;28;20056;-86
2022/06/02 08:34:36;;;;;;;2.33;0.60;;;25.90;99.90;;;;;;4163391;28;20128;-86
2022/06/02 08:37:03;;;;;;;1.33;0.50;;;25.60;99.90;;;;;;4162467;28;20622;-87
2022/06/02 08:39:45;;;;;;;1.67;0.50;;;25.60;99.90;;;;;;4162907;28;20415;-86
2022/06/02 08:42:35;;;;;;;0.55;0.55;;;25.50;99.90;;;;;;4148421;28;20077;-87
2022/06/02 08:45:21;;;;;;;2.13;0.60;;;26.00;99.90;;;;;;4122620;28;20064;-87
2022/06/02 08:48:08;;;;;;;2.10;0.40;;;26.00;99.90;;;;;;4147273;28;20056;-87
2022/06/02 08:50:52;;;;;;;0.50;0.50;;;26.30;99.90;;;;;;4147754;28;20064;-87
2022/06/02 08:53:22;;;;;;;2.17;1.00;;;26.20;99.90;;;;;;4163130;28;20072;-87
2022/06/02 08:56:13;;;;;;;2.45;0.50;;;26.30;99.90;;;;;;4162426;28;20095;-86
2022/06/02 08:58:40;;;;;;;0.73;0.50;;;26.70;99.90;;;;;;4164652;28;20656;-85
2022/06/02 09:01:15;;;;;;;1.25;0.90;;;26.40;99.90;;;;;;4165578;28;20752;-86
2022/06/02 09:04:14;;;;;;;3.17;0.50;;;26.30;99.90;;;;;;4150909;28;20060;-86
2022/06/02 09:06:42;;;;;;;1.60;0.50;;;26.60;99.90;;;;;;4148941;28;20057;-86
2022/06/02 09:09:22;;;;;;;0.50;0.50;;;27.20;99.90;;;;;;4160350;28;20065;-86
2022/06/02 09:11:44;;;;;;;1.40;0.60;;;27.90;99.80;;;;;;4157981;28;20543;-86
2022/06/02 09:14:27;;;;;;;2.10;0.50;;;27.80;99.10;;;;;;4150349;28;20924;-85
2022/06/02 09:16:58;;;;;;;0.85;0.63;;;27.60;99.90;;;;;;4165095;28;20412;-86
2022/06/02 09:19:36;;;;;;;1.80;0.60;;;26.90;99.30;;;;;;4149095;28;20053;-86
2022/06/02 09:22:22;;;;;;;4.15;0.50;;;27.10;99.90;;;;;;4145818;28;20061;-86
2022/06/02 09:25:05;;;;;;;1.08;0.50;;;27.30;99.30;;;;;;4161759;28;20559;-86
2022/06/02 09:27:47;;;;;;;1.08;0.40;;;28.00;99.90;;;;;;4164252;28;20064;-86
2022/06/02 09:30:22;;;;;;;1.95;0.50;;;28.50;98.40;;;;;;4164457;28;20607;-86
2022/06/02 09:32:53;;;;;;;1.17;0.50;;;28.90;98.00;;;;;;4153875;28;20106;-85
2022/06/02 09:35:37;;;;;;;2.15;0.50;;;28.40;99.30;;;;;;4159866;28;20069;-86
2022/06/02 09:38:19;;;;;;;2.13;0.85;;;28.60;99.30;;;;;;4160342;28;20048;-86
2022/06/02 09:40:47;;;;;;;0.85;0.40;;;28.70;99.50;;;;;;4149285;28;20088;-86
2022/06/02 09:43:27;;;;;;;1.95;0.60;;;28.90;96.70;;;;;;4162434;28;20136;-86
2022/06/02 09:45:55;;;;;;;0.63;0.45;;;28.90;97.10;;;;;;4160556;28;20055;-86
2022/06/02 09:49:13;;;;;;;1.73;0.40;;;29.00;96.90;;;;;;4163679;28;20057;-86
2022/06/02 09:51:52;;;;;;;0.50;0.40;;;29.50;96.80;;;;;;4137581;28;20053;-86
2022/06/02 09:54:54;;;;;;;2.78;0.82;;;29.50;96.90;;;;;;4158090;28;20048;-86
2022/06/02 09:57:56;;;;;;;1.83;0.40;;;29.00;94.50;;;;;;4161897;28;20099;-86
2022/06/02 10:00:30;;;;;;;1.05;0.50;;;29.20;96.60;;;;;;4164145;28;20052;-86
2022/06/02 10:03:04;;;;;;;1.75;0.50;;;28.90;94.80;;;;;;4144444;28;20080;-85
2022/06/02 10:05:30;;;;;;;0.85;0.45;;;28.40;95.10;;;;;;4161205;28;20107;-86
2022/06/02 10:08:09;;;;;;;0.75;0.40;;;28.50;95.10;;;;;;4148529;28;20104;-86
2022/06/02 10:10:54;;;;;;;0.65;0.40;;;28.60;96.20;;;;;;4139340;28;20056;-86
2022/06/02 10:13:40;;;;;;;0.50;0.40;;;29.00;96.10;;;;;;4147061;28;20509;-86
2022/06/02 10:16:37;;;;;;;0.73;0.40;;;28.90;94.30;;;;;;4163534;28;20072;-86
2022/06/02 10:19:19;;;;;;;1.13;0.40;;;28.90;92.50;;;;;;4113940;28;20054;-87
2022/06/02 10:21:59;;;;;;;2.50;0.40;;;28.90;94.20;;;;;;4152458;28;20115;-86
2022/06/02 10:24:21;;;;;;;1.67;0.40;;;29.40;96.50;;;;;;4148358;28;20490;-86
2022/06/02 10:27:03;;;;;;;1.63;0.40;;;29.40;92.70;;;;;;4149911;28;20135;-85
2022/06/02 10:29:43;;;;;;;0.57;0.30;;;29.60;95.90;;;;;;4162679;28;20111;-85
2022/06/02 10:32:37;;;;;;;1.48;0.40;;;29.40;93.20;;;;;;4148849;28;20056;-86
2022/06/02 10:35:13;;;;;;;0.40;0.40;;;29.40;93.20;;;;;;4161008;28;20136;-86
2022/06/02 10:37:43;;;;;;;0.70;0.40;;;30.20;96.00;;;;;;4161602;28;20099;-86
2022/06/02 10:40:35;;;;;;;1.58;0.40;;;30.20;91.80;;;;;;4157923;28;20052;-86
2022/06/02 10:43:29;;;;;;;0.82;0.40;;;30.20;95.20;;;;;;4153541;28;20112;-86
2022/06/02 10:46:22;;;;;;;0.60;0.40;;;29.90;90.90;;;;;;4148693;28;20057;-84
2022/06/02 10:49:25;;;;;;;1.02;0.40;;;30.00;92.10;;;;;;4139549;28;20057;-83
2022/06/02 10:52:15;;;;;;;2.25;0.80;;;29.70;93.80;;;;;;4154595;28;20060;-83
2022/06/02 10:55:13;;;;;;;2.88;1.13;;;30.10;93.40;;;;;;4151402;28;20528;-83
2022/06/02 10:57:56;;;;;;;1.08;0.57;;;30.40;91.80;;;;;;4164828;28;20086;-83
2022/06/02 11:00:42;;;;;;;1.98;0.47;;;30.20;91.30;;;;;;4165343;28;20124;-83
2022/06/02 11:03:27;;;;;;;0.77;0.40;;;30.10;91.20;;;;;;4149996;28;20104;-83
2022/06/02 11:06:16;;;;;;;0.95;0.77;;;30.40;90.70;;;;;;4163962;28;20154;-84
2022/06/02 11:09:14;;;;;;;3.40;0.50;;;30.00;91.50;;;;;;4148729;28;20137;-84
2022/06/02 11:11:41;;;;;;;3.50;0.43;;;30.30;91.20;;;;;;4146577;28;20064;-83
2022/06/02 11:14:20;;;;;;;0.40;0.40;;;30.40;91.60;;;;;;4147796;28;20052;-83
2022/06/02 11:17:00;;;;;;;0.50;0.40;;;30.70;90.10;;;;;;4163840;28;20080;-83
2022/06/02 11:20:04;;;;;;;1.17;0.40;;;30.80;89.70;;;;;;4165258;28;20052;-84
2022/06/02 11:22:45;;;;;;;0.77;0.32;;;30.80;88.20;;;;;;4150098;28;20056;-85
2022/06/02 11:26:03;;;;;;;0.95;0.40;;;30.50;90.90;;;;;;4152990;28;20066;-85
2022/06/02 11:28:54;;;;;;;2.25;0.40;;;31.10;91.10;;;;;;4170682;28;20795;-85
2022/06/02 11:32:09;;;;;;;2.03;0.43;;;31.60;91.10;;;;;;4155408;28;20060;-85
2022/06/02 11:35:01;;;;;;;0.82;0.38;;;32.00;90.90;;;;;;4114129;28;20057;-85
2022/06/02 11:38:00;;;;;;;3.85;0.43;;;31.80;86.40;;;;;;4085532;29;20073;-84
2022/06/02 11:40:49;;;;;;;0.57;0.30;;;31.70;86.00;;;;;;4114451;28;20531;-85
2022/06/02 11:43:28;;;;;;;2.25;0.60;;;31.40;90.10;;;;;;4101023;28;20543;-85
2022/06/02 11:46:11;;;;;;;3.92;0.40;;;31.20;91.60;;;;;;4103873;28;20058;-85
2022/06/02 11:49:02;;;;;;;0.32;0.30;;;30.80;89.80;;;;;;4102772;28;20526;-85
2022/06/02 11:52:01;;;;;;;0.75;0.70;;;31.30;90.60;;;;;;4092703;29;20530;-84
2022/06/02 11:54:39;;;;;;;2.85;0.40;;;30.70;88.40;;;;;;4085049;29;20058;-85
2022/06/02 11:57:38;;;;;;;0.50;0.40;;;30.70;87.90;;;;;;4098387;29;20147;-85
2022/06/02 12:03:45;;;;;;;1.48;0.40;;;31.40;89.70;;;;;;4098021;29;20094;-85
2022/06/02 12:07:03;;;;;;;0.45;0.40;;;31.50;90.00;;;;;;4085532;29;20150;-85
2022/06/02 12:09:45;;;;;;;3.70;0.47;;;31.30;85.70;;;;;;4067749;29;20111;-85
2022/06/02 12:12:23;;;;;;;0.30;0.30;;;31.50;85.80;;;;;;4053443;29;20060;-86
2022/06/02 12:15:21;;;;;;;0.98;0.40;;;31.40;84.00;;;;;;4066760;29;20128;-85
2022/06/02 12:18:16;;;;;;;1.75;0.40;;;31.80;90.60;;;;;;4059889;29;20452;-85
2022/06/02 12:21:15;;;;;;;1.60;0.40;;;31.70;89.00;;;;;;4082141;29;20592;-84
2022/06/02 12:23:38;;;;;;;2.63;0.50;;;31.30;84.80;;;;;;4074456;29;20177;-85
2022/06/02 12:26:40;;;;;;;2.60;0.40;;;31.20;88.90;;;;;;4081867;29;20253;-85
2022/06/02 12:29:30;;;;;;;3.55;0.50;;;31.30;83.20;;;;;;4079307;29;20054;-85
2022/06/02 12:32:34;;;;;;;0.65;0.40;;;31.70;86.00;;;;;;4066394;29;20625;-85
2022/06/02 12:35:51;;;;;;;1.33;0.40;;;30.50;84.80;;;;;;4066544;29;20117;-85
2022/06/02 12:38:15;;;;;;;1.60;0.38;;;30.80;85.40;;;;;;4050672;29;20074;-85
2022/06/02 12:45:01;;;;;;;0.63;0.50;;;30.40;86.70;;;;;;4097942;29;20131;-85
2022/06/02 12:48:00;;;;;;;0.40;0.40;;;30.90;88.40;;;;;;4097836;29;20362;-85
2022/06/02 12:50:40;;;;;;;0.40;0.38;;;30.70;87.00;;;;;;4066545;29;20119;-86
2022/06/02 12:53:20;;;;;;;2.90;0.40;;;31.10;85.90;;;;;;4066185;29;20576;-87
2022/06/02 12:56:19;;;;;;;0.40;0.40;;;30.70;83.90;;;;;;4066412;29;20058;-85
2022/06/02 12:59:04;;;;;;;0.98;0.30;;;31.00;84.60;;;;;;4066182;29;20304;-85
2022/06/02 13:01:52;;;;;;;1.15;0.40;;;31.60;84.00;;;;;;4037402;29;20136;-85
2022/06/02 13:04:34;;;;;;;1.17;0.40;;;31.40;86.10;;;;;;4064127;29;20063;-85
2022/06/02 13:07:27;;;;;;;0.75;0.38;;;31.20;83.70;;;;;;4063802;29;20063;-85
2022/06/02 13:10:25;;;;;;;1.75;0.40;;;31.60;84.10;;;;;;4078404;29;20792;-85
2022/06/02 13:16:20;;;;;;;1.38;0.30;;;31.70;85.60;;;;;;4082178;29;20079;-86
2022/06/02 13:19:15;;;;;;;0.82;0.43;;;31.80;85.20;;;;;;4068476;29;20086;-86
2022/06/02 13:22:15;;;;;;;1.23;0.40;;;32.20;85.80;;;;;;4116581;28;20441;-86
2022/06/02 13:25:12;;;;;;;1.30;0.40;;;32.10;84.70;;;;;;4129485;28;20065;-85
2022/06/02 13:27:53;;;;;;;0.40;0.30;;;31.90;85.10;;;;;;4128068;28;20097;-87
2022/06/02 13:30:52;;;;;;;0.70;0.40;;;31.80;83.70;;;;;;4125439;28;20138;-85
2022/06/02 13:33:51;;;;;;;1.95;0.32;;;32.00;86.40;;;;;;4115423;28;20423;-86
2022/06/02 13:36:58;;;;;;;0.30;0.30;;;31.90;83.40;;;;;;4127378;28;20069;-85
2022/06/02 13:39:44;;;;;;;0.43;0.43;;;31.70;82.30;;;;;;4079398;29;20157;-86
2022/06/02 13:42:33;;;;;;;0.73;0.35;;;31.40;85.40;;;;;;4074060;29;20088;-88
2022/06/02 13:45:20;;;;;;;1.25;0.40;;;31.30;84.60;;;;;;4071270;29;20124;-86
2022/06/02 13:48:04;;;;;;;1.17;0.35;;;31.40;85.70;;;;;;4071247;29;20126;-85
2022/06/02 13:51:03;;;;;;;4.00;0.40;;;31.20;81.50;;;;;;4084551;29;20139;-86
2022/06/02 14:00:46;;;;;;;0.45;0.45;;;31.00;81.30;;;;;;4090539;28;20058;-86
2022/06/02 14:03:40;;;;;;;0.80;0.38;;;31.20;83.20;;;;;;4021900;29;20105;-86
2022/06/02 14:06:23;;;;;;;1.40;0.30;;;31.20;82.10;;;;;;4022216;29;20198;-86
2022/06/02 14:09:08;;;;;;;0.80;0.47;;;31.40;83.30;;;;;;4022297;29;20060;-86
2022/06/02 14:11:52;;;;;;;0.88;0.40;;;31.30;82.80;;;;;;4009092;29;20106;-85
2022/06/02 14:14:25;;;;;;;0.50;0.50;;;31.40;85.60;;;;;;4008844;29;20052;-86
2022/06/02 14:17:23;;;;;;;0.77;0.40;;;31.50;84.70;;;;;;4075979;29;20058;-86
2022/06/02 14:20:03;;;;;;;1.23;0.40;;;31.40;82.20;;;;;;4091342;29;20107;-85
2022/06/02 14:22:46;;;;;;;1.27;0.40;;;31.10;85.20;;;;;;4100488;28;20130;-86
2022/06/02 14:25:43;;;;;;;0.60;0.30;;;31.20;83.70;;;;;;4083929;29;20131;-85
2022/06/02 14:28:19;;;;;;;0.55;0.40;;;31.20;85.00;;;;;;4084298;29;20522;-86
2022/06/02 14:30:52;;;;;;;1.50;0.40;;;31.70;86.80;;;;;;4096680;29;20084;-86
2022/06/02 14:33:37;;;;;;;3.05;0.38;;;31.90;82.60;;;;;;4099521;29;20095;-85
2022/06/02 14:36:47;;;;;;;0.40;0.40;;;31.70;83.90;;;;;;4083973;29;20055;-86
2022/06/02 14:39:27;;;;;;;0.93;0.40;;;31.60;83.50;;;;;;4099659;29;20054;-86
2022/06/02 14:42:21;;;;;;;0.95;0.38;;;31.10;83.00;;;;;;4087149;29;20526;-86